This is the latest recevied weather packets stored in our database for station/object OH7GGX-14. If no packets are shown the sender has not sent any weather packets the latest 1 day(s).
| Time | Temp. | Humidity | Pressure | Rain* | Wind** | Luminosity | Snow |
|---|---|---|---|---|---|---|---|
| 1778115089 | -2.78° C | 99% | 1017.4 hPa | 0 mm | - | - | - |
| 1778114489 | -2.78° C | 99% | 1017.3 hPa | 0 mm | - | - | - |
| 1778113889 | -2.78° C | 99% | 1017.3 hPa | 0 mm | - | - | - |
| 1778113291 | -2.78° C | 99% | 1017.2 hPa | 0 mm | - | - | - |
| 1778112689 | -2.78° C | 99% | 1017.2 hPa | 0 mm | - | - | - |
| 1778104890 | -1.67° C | 91% | 1016.1 hPa | 0 mm | - | - | - |
| 1778104290 | -1.67° C | 89% | 1015.9 hPa | 0 mm | - | - | - |
| 1778100690 | -1.11° C | 82% | 1015.6 hPa | 0 mm | - | - | - |
| 1778100090 | -0.56° C | 81% | 1015.5 hPa | 0 mm | - | - | - |
| 1778099490 | -0.56° C | 80% | 1015.5 hPa | 0 mm | - | - | - |
| 1778098290 | 0° C | 76% | 1015.5 hPa | 0 mm | - | - | - |
| 1778097690 | 0° C | 75% | 1015.5 hPa | 0 mm | - | - | - |
| 1778097090 | 0° C | 74% | 1015.4 hPa | 0 mm | - | - | - |
| 1778096490 | 0.56° C | 73% | 1015.3 hPa | 0 mm | - | - | - |
| 1778095890 | 0.56° C | 72% | 1015.3 hPa | 0 mm | - | - | - |
| 1778095290 | 1.11° C | 71% | 1015.2 hPa | 0 mm | - | - | - |
| 1778094690 | 1.67° C | 69% | 1015 hPa | 0 mm | - | - | - |
| 1778094090 | 2.22° C | 67% | 1015 hPa | 0 mm | - | - | - |
| 1778093490 | 2.78° C | 65% | 1014.9 hPa | 0 mm | - | - | - |
| 1778092890 | 3.33° C | 63% | 1014.8 hPa | 0 mm | - | - | - |
| 1778092290 | 3.89° C | 60% | 1014.7 hPa | 0 mm | - | - | - |
| 1778091690 | 4.44° C | 58% | 1014.6 hPa | 0 mm | - | - | - |
| 1778090490 | 6.11° C | 52% | 1014.3 hPa | 0 mm | - | - | - |
| 1778089290 | 7.78° C | 46% | 1014.1 hPa | 0 mm | - | - | - |
| 1778088090 | 8.33° C | 43% | 1013.8 hPa | 0 mm | - | - | - |
* Rain latest hour (hover to see other rain measurements)
** Current wind speed in m/s (hover to see current wind gust speed)